Time;durP1;ratioP1;P1;durP2;ratioP2;P2;SDS_P1;SDS_P2;PMS_P1;PMS_P2;Temp;Humidity;BMP_temperature;BMP_pressure;BME280_temperature;BME280_humidity;BME280_pressure;Samples;Min_cycle;Max_cycle;Signal;HPM_P1;HPM_P2
2021/03/07 00:00:13;;;;;;;8.93;6.90;;;;;;;;;;5029728;28;20380;-85
2021/03/07 00:02:39;;;;;;;8.73;6.70;;;;;;;;;;5026734;28;20386;-83
2021/03/07 00:05:05;;;;;;;9.25;7.80;;;;;;;;;;5027624;28;20491;-86
2021/03/07 00:07:32;;;;;;;8.30;7.30;;;;;;;;;;5026610;28;20429;-82
2021/03/07 00:09:58;;;;;;;8.80;7.90;;;;;;;;;;5024256;28;20864;-87
2021/03/07 00:12:24;;;;;;;8.43;7.53;;;;;;;;;;5027829;28;20464;-84
2021/03/07 00:14:50;;;;;;;10.18;7.97;;;;;;;;;;5028191;28;20385;-84
2021/03/07 00:17:16;;;;;;;13.45;8.35;;;;;;;;;;5025757;28;20472;-85
2021/03/07 00:19:44;;;;;;;11.37;8.80;;;;;;;;;;5027840;28;20389;-83
2021/03/07 00:22:10;;;;;;;9.73;8.73;;;;;;;;;;5027445;28;20393;-84
2021/03/07 00:24:36;;;;;;;12.20;9.20;;;;;;;;;;5034734;28;20387;-82
2021/03/07 00:27:02;;;;;;;9.55;8.45;;;;;;;;;;5026741;28;20935;-84
2021/03/07 00:29:28;;;;;;;11.80;9.40;;;;;;;;;;5027252;28;20413;-85
2021/03/07 00:31:55;;;;;;;10.93;9.80;;;;;;;;;;5024590;28;20401;-84
2021/03/07 00:34:21;;;;;;;12.15;10.85;;;;;;;;;;5024934;28;20469;-83
2021/03/07 00:36:47;;;;;;;15.20;11.97;;;;;;;;;;5024851;28;21069;-83
2021/03/07 00:39:13;;;;;;;13.68;10.48;;;;;;;;;;5015630;28;20472;-87
2021/03/07 00:41:39;;;;;;;16.27;10.63;;;;;;;;;;5026624;28;20393;-86
2021/03/07 00:44:06;;;;;;;13.55;10.98;;;;;;;;;;5026206;28;20397;-86
2021/03/07 00:46:32;;;;;;;11.45;9.68;;;;;;;;;;5027045;28;20926;-86
2021/03/07 00:48:58;;;;;;;13.57;10.48;;;;;;;;;;5029772;28;21051;-85
2021/03/07 00:51:25;;;;;;;13.63;10.45;;;;;;;;;;5031667;28;20373;-80
2021/03/07 00:53:51;;;;;;;14.13;11.35;;;;;;;;;;5031934;28;20519;-82
2021/03/07 00:56:17;;;;;;;16.00;11.80;;;;;;;;;;5031887;28;20369;-87
2021/03/07 00:58:43;;;;;;;16.30;12.27;;;;;;;;;;5032929;28;20358;-85
2021/03/07 01:01:09;;;;;;;14.65;12.57;;;;;;;;;;5041569;28;21036;-84
2021/03/07 01:03:35;;;;;;;15.95;12.68;;;;;;;;;;5032914;28;20439;-85
2021/03/07 01:06:02;;;;;;;15.00;12.05;;;;;;;;;;5042756;28;20455;-83
2021/03/07 01:08:28;;;;;;;15.52;12.85;;;;;;;;;;5029892;28;20370;-83
2021/03/07 01:10:54;;;;;;;15.38;12.35;;;;;;;;;;5031122;28;20404;-82
2021/03/07 01:13:20;;;;;;;15.20;13.60;;;;;;;;;;5029387;28;20389;-83
2021/03/07 01:15:46;;;;;;;14.88;13.27;;;;;;;;;;5033693;28;20483;-84
2021/03/07 01:18:12;;;;;;;14.60;12.38;;;;;;;;;;5031602;28;20864;-84
2021/03/07 01:20:39;;;;;;;14.60;13.03;;;;;;;;;;5030912;28;20386;-82
2021/03/07 01:23:06;;;;;;;14.48;11.95;;;;;;;;;;5031309;28;20374;-81
2021/03/07 01:25:32;;;;;;;15.15;12.25;;;;;;;;;;5031322;28;20741;-83
2021/03/07 01:28:03;;;;;;;15.75;12.73;;;;;;;;;;5030747;28;20422;-86
2021/03/07 01:30:30;;;;;;;14.00;11.75;;;;;;;;;;5031232;28;20378;-86
2021/03/07 01:32:56;;;;;;;13.30;11.67;;;;;;;;;;5031314;28;20370;-84
2021/03/07 01:35:23;;;;;;;12.43;10.75;;;;;;;;;;5031304;28;20393;-87
2021/03/07 01:37:57;;;;;;;10.43;9.20;;;;;;;;;;5030198;28;20389;-84
2021/03/07 01:40:40;;;;;;;11.70;8.60;;;;;;;;;;5011184;28;20378;-84
2021/03/07 01:43:07;;;;;;;10.67;8.00;;;;;;;;;;5009585;28;20475;-81
2021/03/07 01:45:36;;;;;;;11.40;7.88;;;;;;;;;;5011180;28;20411;-83
2021/03/07 01:48:03;;;;;;;9.27;7.30;;;;;;;;;;5010473;28;20538;-83
2021/03/07 01:50:31;;;;;;;9.50;7.40;;;;;;;;;;5020799;28;20387;-85
2021/03/07 01:52:58;;;;;;;8.65;7.00;;;;;;;;;;5013622;28;20449;-86
2021/03/07 01:55:29;;;;;;;7.25;5.57;;;;;;;;;;5013593;28;20379;-83
2021/03/07 01:57:59;;;;;;;8.77;5.60;;;;;;;;;;5012270;28;20885;-84
2021/03/07 02:00:25;;;;;;;10.60;4.72;;;;;;;;;;5044250;28;20437;-84
2021/03/07 02:02:51;;;;;;;7.27;4.13;;;;;;;;;;5050349;28;20407;-83
2021/03/07 02:05:19;;;;;;;8.30;4.63;;;;;;;;;;5051362;28;20808;-83
2021/03/07 02:07:45;;;;;;;7.07;4.10;;;;;;;;;;5032573;28;20378;-85
2021/03/07 02:10:12;;;;;;;6.50;3.40;;;;;;;;;;5030944;28;20372;-88
2021/03/07 02:12:39;;;;;;;6.80;3.35;;;;;;;;;;5029905;28;20378;-79
2021/03/07 02:15:07;;;;;;;7.18;3.55;;;;;;;;;;5030573;28;20370;-85
2021/03/07 02:17:33;;;;;;;6.05;2.97;;;;;;;;;;5030116;28;21061;-87
2021/03/07 02:19:59;;;;;;;7.20;3.30;;;;;;;;;;5029183;28;20970;-85
2021/03/07 02:22:30;;;;;;;6.15;3.28;;;;;;;;;;5030558;28;20392;-83
2021/03/07 02:24:56;;;;;;;7.63;3.90;;;;;;;;;;5032779;28;20373;-82
2021/03/07 02:27:22;;;;;;;5.25;3.42;;;;;;;;;;5031380;28;20520;-83
2021/03/07 02:29:48;;;;;;;7.25;3.67;;;;;;;;;;5031903;28;20384;-85
2021/03/07 02:32:18;;;;;;;5.90;3.10;;;;;;;;;;5040618;28;20381;-79
2021/03/07 02:35:10;;;;;;;5.60;3.40;;;;;;;;;;5035729;28;20390;-82
2021/03/07 02:37:38;;;;;;;6.85;3.55;;;;;;;;;;5034077;28;20385;-84
2021/03/07 02:40:05;;;;;;;5.75;2.80;;;;;;;;;;5030267;28;20869;-84
2021/03/07 02:42:32;;;;;;;4.88;3.00;;;;;;;;;;5029043;28;20386;-83
2021/03/07 02:44:58;;;;;;;6.97;3.40;;;;;;;;;;5030061;28;20366;-83
2021/03/07 02:47:24;;;;;;;5.88;3.38;;;;;;;;;;5030052;28;20384;-87
2021/03/07 02:49:53;;;;;;;6.13;2.95;;;;;;;;;;5029576;28;20370;-82
2021/03/07 02:52:19;;;;;;;7.30;3.20;;;;;;;;;;5029991;28;20435;-82
2021/03/07 02:54:46;;;;;;;7.35;3.30;;;;;;;;;;5028652;28;20947;-83
2021/03/07 02:57:12;;;;;;;7.88;3.45;;;;;;;;;;5029775;28;20605;-83
2021/03/07 02:59:39;;;;;;;5.70;3.20;;;;;;;;;;5037354;28;20388;-83
2021/03/07 03:02:05;;;;;;;5.63;3.10;;;;;;;;;;5055120;28;20383;-82
2021/03/07 03:04:33;;;;;;;7.80;3.22;;;;;;;;;;5061479;28;20372;-79
2021/03/07 03:07:00;;;;;;;4.97;3.03;;;;;;;;;;5062842;28;20422;-81
2021/03/07 03:09:28;;;;;;;7.03;3.67;;;;;;;;;;5055843;28;20376;-83
2021/03/07 03:11:56;;;;;;;7.50;4.13;;;;;;;;;;5050205;28;20376;-86
2021/03/07 03:14:23;;;;;;;6.47;4.32;;;;;;;;;;5049623;28;20696;-82
2021/03/07 03:16:51;;;;;;;9.93;4.75;;;;;;;;;;5050997;28;20368;-87
2021/03/07 03:19:19;;;;;;;10.63;4.60;;;;;;;;;;5049428;28;20513;-83
2021/03/07 03:21:45;;;;;;;8.50;4.78;;;;;;;;;;5049606;28;20399;-86
2021/03/07 03:24:12;;;;;;;7.78;4.85;;;;;;;;;;5050382;28;20371;-83
2021/03/07 03:26:38;;;;;;;9.03;4.97;;;;;;;;;;5048194;28;20450;-86
2021/03/07 03:29:05;;;;;;;9.07;4.43;;;;;;;;;;5048152;28;20483;-84
2021/03/07 03:31:32;;;;;;;7.25;4.78;;;;;;;;;;5049317;28;20364;-81
2021/03/07 03:33:58;;;;;;;8.52;5.30;;;;;;;;;;5049101;28;20368;-81
2021/03/07 03:36:24;;;;;;;9.50;4.50;;;;;;;;;;5048577;28;20367;-84
2021/03/07 03:38:52;;;;;;;9.20;4.57;;;;;;;;;;5048958;28;20399;-83
2021/03/07 03:41:20;;;;;;;6.90;4.32;;;;;;;;;;5046943;28;20395;-85
2021/03/07 03:43:47;;;;;;;7.65;4.63;;;;;;;;;;5049488;28;20372;-84
2021/03/07 03:46:14;;;;;;;8.53;4.97;;;;;;;;;;5048788;28;20404;-85
2021/03/07 03:48:41;;;;;;;8.20;4.82;;;;;;;;;;5048674;28;20376;-83
2021/03/07 03:51:09;;;;;;;6.85;4.72;;;;;;;;;;5048631;28;20376;-82
2021/03/07 03:53:36;;;;;;;7.85;4.90;;;;;;;;;;5049056;28;20370;-85
2021/03/07 03:56:03;;;;;;;7.05;4.78;;;;;;;;;;5047610;28;20376;-83
2021/03/07 03:58:30;;;;;;;10.13;5.00;;;;;;;;;;5048904;28;20994;-84
2021/03/07 04:00:56;;;;;;;7.25;4.85;;;;;;;;;;5007504;28;20386;-83
2021/03/07 04:03:23;;;;;;;8.93;5.10;;;;;;;;;;5007233;28;20466;-86
2021/03/07 04:05:50;;;;;;;7.25;4.50;;;;;;;;;;5009350;28;20999;-82
2021/03/07 04:08:17;;;;;;;8.30;5.03;;;;;;;;;;5007885;28;21428;-83
2021/03/07 04:10:43;;;;;;;9.43;5.20;;;;;;;;;;5007497;28;20941;-83
2021/03/07 04:13:11;;;;;;;7.43;5.20;;;;;;;;;;5009373;28;20379;-83
2021/03/07 04:15:38;;;;;;;7.97;4.72;;;;;;;;;;5012536;28;20884;-85
2021/03/07 04:18:04;;;;;;;10.27;5.00;;;;;;;;;;5013216;28;20379;-87
2021/03/07 04:20:30;;;;;;;9.40;5.53;;;;;;;;;;5011364;28;20458;-84
2021/03/07 04:22:56;;;;;;;10.50;5.17;;;;;;;;;;5011450;28;20382;-80
2021/03/07 04:25:22;;;;;;;8.98;5.25;;;;;;;;;;5012739;28;20501;-83
2021/03/07 04:27:49;;;;;;;9.70;5.07;;;;;;;;;;5013240;28;20371;-87
2021/03/07 04:30:18;;;;;;;9.35;5.40;;;;;;;;;;5012788;28;20391;-83
2021/03/07 04:32:45;;;;;;;9.23;5.53;;;;;;;;;;5011582;28;20383;-83
2021/03/07 04:35:12;;;;;;;8.40;5.03;;;;;;;;;;5013205;28;20375;-84
2021/03/07 04:37:38;;;;;;;9.02;5.30;;;;;;;;;;5011796;28;20391;-82
2021/03/07 04:40:04;;;;;;;8.45;5.40;;;;;;;;;;5012280;28;20386;-85
2021/03/07 04:42:31;;;;;;;8.02;5.10;;;;;;;;;;5011517;28;20384;-84
2021/03/07 04:44:56;;;;;;;9.38;5.35;;;;;;;;;;5012499;28;20441;-83
2021/03/07 04:47:22;;;;;;;11.35;5.80;;;;;;;;;;5012440;28;20865;-82
2021/03/07 04:49:48;;;;;;;10.97;5.60;;;;;;;;;;5012126;28;20386;-83
2021/03/07 04:52:14;;;;;;;10.43;5.40;;;;;;;;;;5012164;28;20387;-83
2021/03/07 04:54:40;;;;;;;8.93;5.53;;;;;;;;;;5011385;28;20386;-82
2021/03/07 04:57:07;;;;;;;11.77;5.60;;;;;;;;;;5026058;28;20468;-87
2021/03/07 04:59:34;;;;;;;8.38;5.13;;;;;;;;;;5040728;28;20375;-87
2021/03/07 05:02:00;;;;;;;8.80;5.10;;;;;;;;;;5030861;28;20404;-84
2021/03/07 05:04:26;;;;;;;9.45;5.15;;;;;;;;;;5031901;28;20855;-84
2021/03/07 05:06:52;;;;;;;9.47;4.83;;;;;;;;;;5031555;28;20406;-85
2021/03/07 05:09:18;;;;;;;7.50;5.18;;;;;;;;;;5032221;28;20417;-88
2021/03/07 05:11:44;;;;;;;9.60;4.97;;;;;;;;;;5031915;28;20413;-84
2021/03/07 05:14:10;;;;;;;8.85;4.88;;;;;;;;;;5031853;28;20378;-84
2021/03/07 05:16:36;;;;;;;6.43;4.53;;;;;;;;;;5032194;28;20380;-82
2021/03/07 05:19:03;;;;;;;8.10;4.68;;;;;;;;;;5031943;28;20381;-86
2021/03/07 05:21:29;;;;;;;7.03;4.75;;;;;;;;;;5030952;28;21198;-83
2021/03/07 05:23:56;;;;;;;9.53;4.37;;;;;;;;;;5031541;28;20445;-83
2021/03/07 05:26:22;;;;;;;6.80;4.70;;;;;;;;;;5030342;28;20484;-84
2021/03/07 05:28:48;;;;;;;10.70;4.45;;;;;;;;;;5030412;28;20412;-87
2021/03/07 05:31:14;;;;;;;9.52;4.95;;;;;;;;;;5031033;28;20377;-84
2021/03/07 05:33:40;;;;;;;8.33;4.70;;;;;;;;;;5030407;28;20386;-84
2021/03/07 05:36:06;;;;;;;8.23;4.50;;;;;;;;;;5030816;28;20381;-87
2021/03/07 05:38:32;;;;;;;9.07;4.22;;;;;;;;;;5031895;28;20412;-85
2021/03/07 05:40:58;;;;;;;6.93;4.67;;;;;;;;;;5031452;28;20765;-86
2021/03/07 05:43:25;;;;;;;6.07;4.15;;;;;;;;;;5033041;28;20374;-84
2021/03/07 05:45:52;;;;;;;6.60;4.10;;;;;;;;;;5041397;28;20416;-80
2021/03/07 05:48:18;;;;;;;7.37;4.47;;;;;;;;;;5042363;28;20807;-84
2021/03/07 05:50:44;;;;;;;7.40;4.20;;;;;;;;;;5032243;28;20380;-84
2021/03/07 05:53:11;;;;;;;8.30;3.88;;;;;;;;;;5031386;28;21048;-83
2021/03/07 05:55:37;;;;;;;9.35;4.43;;;;;;;;;;5029964;28;20779;-83
2021/03/07 05:58:03;;;;;;;10.82;4.57;;;;;;;;;;5040629;28;20380;-84
2021/03/07 06:00:30;;;;;;;7.40;4.00;;;;;;;;;;5054061;28;20376;-80
2021/03/07 06:02:57;;;;;;;7.25;3.95;;;;;;;;;;5058632;28;20411;-82
2021/03/07 06:05:23;;;;;;;6.03;3.65;;;;;;;;;;5053236;28;20394;-83
2021/03/07 06:07:49;;;;;;;8.35;4.20;;;;;;;;;;5052401;28;20984;-83
2021/03/07 06:10:16;;;;;;;9.55;3.72;;;;;;;;;;5048704;28;20380;-84
2021/03/07 06:12:43;;;;;;;8.02;4.00;;;;;;;;;;5059274;28;20379;-83
2021/03/07 06:15:12;;;;;;;5.30;3.90;;;;;;;;;;5052029;28;20376;-83
2021/03/07 06:17:44;;;;;;;6.70;3.15;;;;;;;;;;5052162;28;20376;-81
2021/03/07 06:20:13;;;;;;;7.03;3.60;;;;;;;;;;5054127;28;20460;-85
2021/03/07 06:22:39;;;;;;;7.93;3.58;;;;;;;;;;5049060;28;20877;-85
2021/03/07 06:25:07;;;;;;;7.05;3.60;;;;;;;;;;5049938;28;20398;-83
2021/03/07 06:27:33;;;;;;;6.95;3.67;;;;;;;;;;5050315;28;20430;-83
2021/03/07 06:30:08;;;;;;;6.65;3.40;;;;;;;;;;5049525;28;20380;-84
2021/03/07 06:32:39;;;;;;;7.33;4.07;;;;;;;;;;5048635;28;20799;-84
2021/03/07 06:35:06;;;;;;;8.65;4.72;;;;;;;;;;5049552;28;20372;-84
2021/03/07 06:37:32;;;;;;;4.93;3.72;;;;;;;;;;5050017;28;20391;-84
2021/03/07 06:39:59;;;;;;;5.97;3.60;;;;;;;;;;5049304;28;20407;-86
2021/03/07 06:42:25;;;;;;;6.72;3.20;;;;;;;;;;5048235;28;20437;-83
2021/03/07 06:45:01;;;;;;;6.75;3.25;;;;;;;;;;5049391;28;20368;-86
2021/03/07 06:47:28;;;;;;;6.20;3.15;;;;;;;;;;5049951;28;20387;-81
2021/03/07 06:50:07;;;;;;;7.03;3.20;;;;;;;;;;5048168;28;20434;-82
2021/03/07 06:52:33;;;;;;;7.18;3.45;;;;;;;;;;5048616;28;21188;-82
2021/03/07 06:55:04;;;;;;;6.75;3.50;;;;;;;;;;5048041;28;20467;-86
2021/03/07 06:57:30;;;;;;;7.43;3.42;;;;;;;;;;5048242;28;20399;-83
2021/03/07 06:59:56;;;;;;;5.22;2.95;;;;;;;;;;5037037;28;20405;-83
2021/03/07 07:02:23;;;;;;;6.50;3.20;;;;;;;;;;5029760;28;20420;-85
2021/03/07 07:04:49;;;;;;;4.82;3.30;;;;;;;;;;5028377;28;20377;-84
2021/03/07 07:07:16;;;;;;;6.05;3.17;;;;;;;;;;5029727;28;20759;-84
2021/03/07 07:09:43;;;;;;;5.90;3.30;;;;;;;;;;5029207;28;20441;-84
2021/03/07 07:12:18;;;;;;;5.65;3.20;;;;;;;;;;5033611;28;20374;-82
2021/03/07 07:14:44;;;;;;;6.57;3.13;;;;;;;;;;5038406;28;20384;-82
2021/03/07 07:17:20;;;;;;;6.97;3.00;;;;;;;;;;5034125;28;20400;-81
2021/03/07 07:19:47;;;;;;;4.88;3.17;;;;;;;;;;5013906;28;20881;-88
2021/03/07 07:22:15;;;;;;;7.22;3.00;;;;;;;;;;5009467;28;20410;-84
2021/03/07 07:24:41;;;;;;;6.38;3.50;;;;;;;;;;5009597;28;20778;-81
2021/03/07 07:27:09;;;;;;;6.32;3.10;;;;;;;;;;5008009;28;20928;-85
2021/03/07 07:29:35;;;;;;;7.72;3.25;;;;;;;;;;5008367;28;20423;-84
2021/03/07 07:32:07;;;;;;;6.65;3.50;;;;;;;;;;5008188;28;20481;-85
2021/03/07 07:34:53;;;;;;;3.60;2.83;;;;;;;;;;5009276;28;20368;-84
2021/03/07 07:37:29;;;;;;;6.30;3.35;;;;;;;;;;5008909;28;20403;-83
2021/03/07 07:39:55;;;;;;;5.68;2.88;;;;;;;;;;5010629;28;20474;-81
2021/03/07 07:42:25;;;;;;;4.90;2.85;;;;;;;;;;5009927;28;20398;-86
2021/03/07 07:44:52;;;;;;;4.95;2.88;;;;;;;;;;5010178;28;20375;-83
2021/03/07 07:47:19;;;;;;;4.57;3.10;;;;;;;;;;5010103;28;20418;-83
2021/03/07 07:49:45;;;;;;;4.55;3.17;;;;;;;;;;5011813;28;20436;-84
2021/03/07 07:52:26;;;;;;;5.07;2.80;;;;;;;;;;5012965;28;20470;-88
2021/03/07 07:54:59;;;;;;;4.70;2.70;;;;;;;;;;5013160;28;20873;-81
2021/03/07 07:57:31;;;;;;;6.97;3.05;;;;;;;;;;5012358;28;20379;-85
2021/03/07 07:59:58;;;;;;;4.80;2.92;;;;;;;;;;5036754;28;20380;-86
2021/03/07 08:02:50;;;;;;;5.47;2.83;;;;;;;;;;5051857;28;20447;-84
2021/03/07 08:05:24;;;;;;;5.25;2.92;;;;;;;;;;5052261;28;20376;-81
2021/03/07 08:07:56;;;;;;;4.72;2.85;;;;;;;;;;5053207;28;20436;-86
2021/03/07 08:10:39;;;;;;;4.88;2.95;;;;;;;;;;5052754;28;20869;-84
2021/03/07 08:13:05;;;;;;;7.28;3.10;;;;;;;;;;5052141;28;20467;-85
2021/03/07 08:15:34;;;;;;;9.07;3.03;;;;;;;;;;5053016;28;20375;-88
2021/03/07 08:18:02;;;;;;;5.90;2.92;;;;;;;;;;5053781;28;20471;-85
2021/03/07 08:20:40;;;;;;;6.40;3.38;;;;;;;;;;5053023;28;20372;-82
2021/03/07 08:23:16;;;;;;;4.68;3.10;;;;;;;;;;5051641;28;20383;-83
2021/03/07 08:25:51;;;;;;;7.32;2.85;;;;;;;;;;5054463;28;20392;-86
2021/03/07 08:28:26;;;;;;;4.43;2.72;;;;;;;;;;5052089;28;20407;-88
2021/03/07 08:31:13;;;;;;;5.13;2.95;;;;;;;;;;5052429;28;20890;-83
2021/03/07 08:33:39;;;;;;;5.10;3.15;;;;;;;;;;5047325;28;20470;-85
2021/03/07 08:36:14;;;;;;;8.05;3.60;;;;;;;;;;5052301;28;20387;-83
2021/03/07 08:38:51;;;;;;;6.55;3.10;;;;;;;;;;5049510;28;20367;-83
2021/03/07 08:41:18;;;;;;;5.78;3.03;;;;;;;;;;5026873;28;20381;-83
2021/03/07 08:43:45;;;;;;;5.88;3.13;;;;;;;;;;5030001;28;20381;-80
2021/03/07 08:46:17;;;;;;;6.28;3.42;;;;;;;;;;5030016;28;20424;-82
2021/03/07 08:48:45;;;;;;;6.10;3.20;;;;;;;;;;5019084;28;20374;-87
2021/03/07 08:51:12;;;;;;;5.40;3.33;;;;;;;;;;5029672;28;20389;-80
2021/03/07 08:53:39;;;;;;;8.15;3.70;;;;;;;;;;5031999;28;20468;-82
2021/03/07 08:56:06;;;;;;;7.47;3.47;;;;;;;;;;5033376;28;20373;-83
2021/03/07 08:58:32;;;;;;;6.32;3.63;;;;;;;;;;5032509;28;20366;-83
2021/03/07 09:00:59;;;;;;;4.87;3.80;;;;;;;;;;5050018;28;20555;-85
2021/03/07 09:03:27;;;;;;;7.35;4.03;;;;;;;;;;5041922;28;20382;-83
2021/03/07 09:05:53;;;;;;;7.18;3.90;;;;;;;;;;5032072;28;20459;-88
2021/03/07 09:08:25;;;;;;;7.63;3.90;;;;;;;;;;5031821;28;20424;-84
2021/03/07 09:10:53;;;;;;;6.45;4.38;;;;;;;;;;5029788;28;20377;-86
2021/03/07 09:13:20;;;;;;;6.32;4.13;;;;;;;;;;5032108;28;20386;-83
2021/03/07 09:15:56;;;;;;;7.63;4.20;;;;;;;;;;5031313;28;20453;-86
2021/03/07 09:18:23;;;;;;;7.47;4.30;;;;;;;;;;5029802;28;20386;-87
2021/03/07 09:20:51;;;;;;;8.93;5.00;;;;;;;;;;5029863;28;20460;-84
2021/03/07 09:23:30;;;;;;;7.88;4.22;;;;;;;;;;5035636;28;20389;-83
2021/03/07 09:25:57;;;;;;;9.80;4.50;;;;;;;;;;5037322;28;20424;-81
2021/03/07 09:28:30;;;;;;;8.07;4.72;;;;;;;;;;5034770;28;20764;-84
2021/03/07 09:30:57;;;;;;;7.50;4.55;;;;;;;;;;5029306;28;20420;-83
2021/03/07 09:33:23;;;;;;;7.35;4.57;;;;;;;;;;5028663;28;20891;-84
2021/03/07 09:36:02;;;;;;;8.82;4.57;;;;;;;;;;5032478;28;20456;-88
2021/03/07 09:38:43;;;;;;;6.38;4.35;;;;;;;;;;5034143;28;20389;-84
2021/03/07 09:41:10;;;;;;;6.78;4.40;;;;;;;;;;5031966;28;20386;-86
2021/03/07 09:43:37;;;;;;;7.50;4.50;;;;;;;;;;5032581;28;20417;-86
2021/03/07 09:46:05;;;;;;;7.82;5.18;;;;;;;;;;5034779;28;20408;-90
2021/03/07 09:48:32;;;;;;;6.60;4.45;;;;;;;;;;5029660;28;20479;-84
2021/03/07 09:50:59;;;;;;;8.38;4.60;;;;;;;;;;5029395;28;20373;-86
2021/03/07 09:53:26;;;;;;;8.23;4.97;;;;;;;;;;5030532;28;20370;-87
2021/03/07 09:55:52;;;;;;;8.85;4.50;;;;;;;;;;5028993;28;20946;-84
2021/03/07 09:58:18;;;;;;;7.17;5.50;;;;;;;;;;5042233;28;20387;-85
2021/03/07 10:00:50;;;;;;;10.60;5.80;;;;;;;;;;5043520;28;20373;-83
2021/03/07 10:03:21;;;;;;;9.20;5.57;;;;;;;;;;5028849;28;20390;-85
2021/03/07 10:06:03;;;;;;;9.07;5.10;;;;;;;;;;5034952;28;20494;-84
2021/03/07 10:08:31;;;;;;;9.87;5.40;;;;;;;;;;5036466;28;20420;-87
2021/03/07 10:11:14;;;;;;;7.47;5.10;;;;;;;;;;5033781;28;20406;-82
2021/03/07 10:13:40;;;;;;;7.30;5.25;;;;;;;;;;5026214;28;20389;-83
2021/03/07 10:16:07;;;;;;;12.45;6.28;;;;;;;;;;5030078;28;20405;-80
2021/03/07 10:18:34;;;;;;;9.40;5.47;;;;;;;;;;5029405;28;20381;-86
2021/03/07 10:21:00;;;;;;;8.45;5.13;;;;;;;;;;5029850;28;20388;-84
2021/03/07 10:23:30;;;;;;;7.00;5.00;;;;;;;;;;5029775;28;20464;-82
2021/03/07 10:25:57;;;;;;;8.50;5.73;;;;;;;;;;5028299;28;20459;-84
2021/03/07 10:28:23;;;;;;;7.93;5.57;;;;;;;;;;5030286;28;20385;-84
2021/03/07 10:30:50;;;;;;;8.15;5.40;;;;;;;;;;5029556;28;20377;-81
2021/03/07 10:33:22;;;;;;;8.38;5.50;;;;;;;;;;5028921;28;20408;-83
2021/03/07 10:36:00;;;;;;;8.55;5.22;;;;;;;;;;5029251;28;20836;-86
2021/03/07 10:38:26;;;;;;;7.20;5.50;;;;;;;;;;5030058;28;20369;-81
2021/03/07 10:40:52;;;;;;;9.95;5.53;;;;;;;;;;5028674;28;20405;-83
2021/03/07 10:43:18;;;;;;;8.23;5.28;;;;;;;;;;5029740;28;20373;-82
2021/03/07 10:45:44;;;;;;;8.18;5.20;;;;;;;;;;5028463;28;20745;-84
2021/03/07 10:48:11;;;;;;;9.05;5.53;;;;;;;;;;5028661;28;20447;-86
2021/03/07 10:50:40;;;;;;;9.10;5.15;;;;;;;;;;5026659;28;20812;-81
2021/03/07 10:53:07;;;;;;;10.32;5.18;;;;;;;;;;5017989;28;20812;-83
2021/03/07 10:55:33;;;;;;;8.52;5.32;;;;;;;;;;5028325;28;20421;-82
2021/03/07 10:57:59;;;;;;;9.87;5.27;;;;;;;;;;5017257;28;20405;-80
2021/03/07 11:00:25;;;;;;;7.75;5.28;;;;;;;;;;5029977;28;20369;-84
2021/03/07 11:02:52;;;;;;;9.20;5.88;;;;;;;;;;5029362;28;20361;-81
2021/03/07 11:05:19;;;;;;;9.88;5.65;;;;;;;;;;5028982;28;20377;-87
2021/03/07 11:07:45;;;;;;;8.32;5.22;;;;;;;;;;5030018;28;20397;-88
2021/03/07 11:10:12;;;;;;;8.18;5.28;;;;;;;;;;5027342;28;20408;-83
2021/03/07 11:12:38;;;;;;;8.77;5.40;;;;;;;;;;5028147;28;20389;-83
2021/03/07 11:15:05;;;;;;;9.25;6.00;;;;;;;;;;5025793;28;20398;-87
2021/03/07 11:17:31;;;;;;;8.93;5.80;;;;;;;;;;5026176;28;20417;-85
2021/03/07 11:19:57;;;;;;;7.95;5.60;;;;;;;;;;5027319;28;20871;-84
2021/03/07 11:22:24;;;;;;;8.98;5.90;;;;;;;;;;5027874;28;20588;-87
2021/03/07 11:24:50;;;;;;;9.13;5.60;;;;;;;;;;5035272;28;20385;-83
2021/03/07 11:27:16;;;;;;;9.63;6.05;;;;;;;;;;5034170;28;20397;-83
2021/03/07 11:29:42;;;;;;;9.30;6.00;;;;;;;;;;5033446;28;20484;-85
2021/03/07 11:32:08;;;;;;;9.82;6.38;;;;;;;;;;5026376;28;21074;-83
2021/03/07 11:34:37;;;;;;;9.50;5.95;;;;;;;;;;5024824;28;20444;-80
2021/03/07 11:37:03;;;;;;;10.47;6.03;;;;;;;;;;5027661;28;20377;-83
2021/03/07 11:39:29;;;;;;;8.43;5.68;;;;;;;;;;5021076;28;20779;-82
2021/03/07 11:41:55;;;;;;;9.60;7.18;;;;;;;;;;5024099;28;20728;-84
2021/03/07 11:44:21;;;;;;;7.93;5.67;;;;;;;;;;5024928;28;20435;-83
2021/03/07 11:46:51;;;;;;;9.32;5.55;;;;;;;;;;5006389;28;20927;-83
2021/03/07 11:49:17;;;;;;;8.38;5.75;;;;;;;;;;5014057;28;20480;-83
2021/03/07 11:51:43;;;;;;;8.30;6.07;;;;;;;;;;5008316;28;20394;-84
2021/03/07 11:54:09;;;;;;;11.23;7.07;;;;;;;;;;5014271;28;20378;-82
2021/03/07 11:56:36;;;;;;;7.75;5.90;;;;;;;;;;5025229;28;20750;-81
2021/03/07 11:59:02;;;;;;;13.32;7.35;;;;;;;;;;5027504;28;20956;-82
2021/03/07 12:01:27;;;;;;;11.65;8.82;;;;;;;;;;5037251;28;20885;-83
2021/03/07 12:03:53;;;;;;;13.27;7.73;;;;;;;;;;5026122;28;20401;-84
2021/03/07 12:06:20;;;;;;;11.27;6.90;;;;;;;;;;5034096;28;20410;-84
2021/03/07 12:08:45;;;;;;;11.65;6.28;;;;;;;;;;5045629;28;20419;-83
2021/03/07 12:11:11;;;;;;;12.05;8.20;;;;;;;;;;5029075;28;20799;-86
2021/03/07 12:13:37;;;;;;;10.90;7.28;;;;;;;;;;5027815;28;20397;-82
2021/03/07 12:16:04;;;;;;;13.60;9.60;;;;;;;;;;5025856;28;20447;-84
2021/03/07 12:18:30;;;;;;;10.25;5.68;;;;;;;;;;5027583;28;20405;-83
2021/03/07 12:20:56;;;;;;;10.43;6.18;;;;;;;;;;5027389;28;20872;-83
2021/03/07 12:23:24;;;;;;;9.35;5.97;;;;;;;;;;5024465;28;20397;-84
2021/03/07 12:25:50;;;;;;;9.32;5.75;;;;;;;;;;5026231;28;20462;-82
2021/03/07 12:28:16;;;;;;;7.50;5.30;;;;;;;;;;5025606;28;20400;-83
2021/03/07 12:30:43;;;;;;;8.30;5.85;;;;;;;;;;5033318;28;20993;-83
2021/03/07 12:33:09;;;;;;;9.02;5.47;;;;;;;;;;5045129;28;20965;-84
2021/03/07 12:35:35;;;;;;;8.30;5.18;;;;;;;;;;5029778;28;20467;-84
2021/03/07 12:38:01;;;;;;;9.20;5.90;;;;;;;;;;5027824;28;20993;-83
2021/03/07 12:40:27;;;;;;;10.38;7.03;;;;;;;;;;5028795;28;20398;-83
2021/03/07 12:42:53;;;;;;;8.32;5.40;;;;;;;;;;5039026;28;20469;-82
2021/03/07 12:45:20;;;;;;;9.73;5.30;;;;;;;;;;5029869;28;21007;-84
2021/03/07 12:47:46;;;;;;;8.60;5.72;;;;;;;;;;5028495;28;20377;-82
2021/03/07 12:50:12;;;;;;;7.32;5.20;;;;;;;;;;5028470;28;20397;-85
2021/03/07 12:52:39;;;;;;;7.55;4.97;;;;;;;;;;5026722;28;20468;-85
2021/03/07 12:55:05;;;;;;;8.80;5.75;;;;;;;;;;5024292;28;20384;-84
2021/03/07 12:57:31;;;;;;;8.43;5.15;;;;;;;;;;5028200;28;20465;-82
2021/03/07 12:59:57;;;;;;;7.07;4.97;;;;;;;;;;5025905;28;20488;-85
2021/03/07 13:02:31;;;;;;;7.93;4.83;;;;;;;;;;5028925;28;20595;-84
2021/03/07 13:04:57;;;;;;;9.57;4.75;;;;;;;;;;5044153;28;20456;-85
2021/03/07 13:07:23;;;;;;;8.63;4.70;;;;;;;;;;5026475;28;20921;-84
2021/03/07 13:09:49;;;;;;;7.88;4.65;;;;;;;;;;5028213;28;20393;-84
2021/03/07 13:12:15;;;;;;;10.43;5.10;;;;;;;;;;5027763;28;20500;-82
2021/03/07 13:14:41;;;;;;;8.30;4.77;;;;;;;;;;5029063;28;20458;-83
2021/03/07 13:17:07;;;;;;;7.00;4.35;;;;;;;;;;5027564;28;20875;-83
2021/03/07 13:19:33;;;;;;;6.82;4.28;;;;;;;;;;5013671;28;20480;-83
2021/03/07 13:21:59;;;;;;;8.18;4.65;;;;;;;;;;5027029;28;20421;-86
2021/03/07 13:24:25;;;;;;;8.73;4.17;;;;;;;;;;5028558;28;20859;-81
2021/03/07 13:26:51;;;;;;;5.90;4.05;;;;;;;;;;5027210;28;20409;-82
2021/03/07 13:29:18;;;;;;;5.95;3.95;;;;;;;;;;5028807;28;20468;-83
2021/03/07 13:31:44;;;;;;;7.28;3.63;;;;;;;;;;5030294;28;20393;-82
2021/03/07 13:34:10;;;;;;;7.53;3.80;;;;;;;;;;5030940;28;20411;-82
2021/03/07 13:36:36;;;;;;;7.93;3.95;;;;;;;;;;5033042;28;20468;-84
2021/03/07 13:39:03;;;;;;;6.25;3.80;;;;;;;;;;5029456;28;20794;-81
2021/03/07 13:41:29;;;;;;;7.47;3.83;;;;;;;;;;5030838;28;20397;-83
2021/03/07 13:43:55;;;;;;;8.00;3.83;;;;;;;;;;5028606;28;20386;-83
2021/03/07 13:46:22;;;;;;;10.30;3.85;;;;;;;;;;5027707;28;20405;-83
2021/03/07 13:48:48;;;;;;;7.38;3.63;;;;;;;;;;5027559;28;20883;-87
2021/03/07 13:51:14;;;;;;;6.28;3.28;;;;;;;;;;5028553;28;20370;-83
2021/03/07 13:53:41;;;;;;;9.25;3.67;;;;;;;;;;5025281;28;20899;-81
2021/03/07 13:56:07;;;;;;;8.40;4.40;;;;;;;;;;5021133;28;20407;-80
2021/03/07 13:58:34;;;;;;;7.57;4.00;;;;;;;;;;5024398;28;20505;-86
2021/03/07 14:01:00;;;;;;;7.68;3.85;;;;;;;;;;5026490;28;20418;-83
2021/03/07 14:03:26;;;;;;;8.10;4.18;;;;;;;;;;5025704;28;20408;-83
2021/03/07 14:05:52;;;;;;;7.78;3.85;;;;;;;;;;5008562;28;20453;-82
2021/03/07 14:08:18;;;;;;;8.73;3.42;;;;;;;;;;5023424;28;20443;-84
2021/03/07 14:10:45;;;;;;;7.57;3.70;;;;;;;;;;5024010;28;20783;-83
2021/03/07 14:13:11;;;;;;;8.15;4.28;;;;;;;;;;5025192;28;20385;-83
2021/03/07 14:15:37;;;;;;;8.38;4.15;;;;;;;;;;5024210;28;20435;-84
2021/03/07 14:18:03;;;;;;;7.40;3.97;;;;;;;;;;5017671;28;20867;-83
2021/03/07 14:20:29;;;;;;;8.27;4.30;;;;;;;;;;5028353;28;20381;-82
2021/03/07 14:22:56;;;;;;;6.97;3.90;;;;;;;;;;5025069;28;20385;-84
2021/03/07 14:25:22;;;;;;;9.98;4.63;;;;;;;;;;5024737;28;20439;-84
2021/03/07 14:27:48;;;;;;;7.90;4.57;;;;;;;;;;5025157;28;20389;-82
2021/03/07 14:30:15;;;;;;;8.38;4.10;;;;;;;;;;5029425;28;20391;-85
2021/03/07 14:32:43;;;;;;;7.00;4.37;;;;;;;;;;5026949;28;20417;-88
2021/03/07 14:35:10;;;;;;;9.68;4.18;;;;;;;;;;5027308;28;20953;-85
2021/03/07 14:37:36;;;;;;;8.35;4.28;;;;;;;;;;5028911;28;20373;-86
2021/03/07 14:40:04;;;;;;;6.70;4.15;;;;;;;;;;5027027;28;20378;-87
2021/03/07 14:42:30;;;;;;;7.35;3.78;;;;;;;;;;5029731;28;20400;-87